createdAt,value
2022-12-24T00:05:07.686Z,98875.38
2022-12-24T00:10:30.934Z,98879.38
2022-12-24T00:15:52.749Z,98883.84
2022-12-24T00:21:18.511Z,98894.28
2022-12-24T00:26:40.663Z,98884.41
2022-12-24T00:32:03.004Z,98894.28
2022-12-24T00:37:24.934Z,98891.31
2022-12-24T00:42:47.557Z,98888.13
2022-12-24T00:48:09.636Z,98917.09
2022-12-24T00:53:31.618Z,98908.28
2022-12-24T00:58:54.172Z,98930.66
2022-12-24T01:04:34.771Z,98911.75
2022-12-24T01:09:57.238Z,98909.88
2022-12-24T01:15:19.304Z,98930.63
2022-12-24T01:20:41.704Z,98928.50
2022-12-24T01:26:05.532Z,98951.41
2022-12-24T01:31:27.719Z,98941.28
2022-12-24T01:36:49.815Z,98948.47
2022-12-24T01:42:42.783Z,98954.59
2022-12-24T01:48:06.437Z,98956.47
2022-12-24T01:53:29.684Z,98956.72
2022-12-24T01:58:58.456Z,98958.84
2022-12-24T02:04:32.794Z,98938.56
2022-12-24T02:09:58.414Z,98961.16
2022-12-24T02:15:21.691Z,98982.75
2022-12-24T02:21:22.086Z,98978.47
2022-12-24T02:27:25.512Z,98989.66
2022-12-24T02:33:23.792Z,98989.63
2022-12-24T02:38:52.633Z,98975.75
2022-12-24T02:44:15.793Z,98993.31
2022-12-24T02:49:39.016Z,98995.97
2022-12-24T02:55:05.857Z,99003.94
2022-12-24T03:00:31.628Z,99011.13
2022-12-24T03:06:13.561Z,99012.69
2022-12-24T03:11:39.284Z,99014.78
2022-12-24T03:17:03.672Z,99016.66
2022-12-24T03:22:27.195Z,99031.06
2022-12-24T03:27:49.591Z,99016.91
2022-12-24T03:33:13.552Z,99023.31
2022-12-24T03:38:36.158Z,99033.13
2022-12-24T03:43:58.088Z,99026.75
2022-12-24T03:49:20.467Z,99038.44
2022-12-24T03:54:42.344Z,99040.59
2022-12-24T04:00:06.586Z,99044.28
2022-12-24T04:05:33.817Z,99049.38
2022-12-24T04:10:56.077Z,99054.44
2022-12-24T04:16:18.294Z,99049.09
2022-12-24T04:21:40.472Z,99070.38
2022-12-24T04:27:02.409Z,99051.22
2022-12-24T04:32:25.527Z,99056.53
2022-12-24T04:37:47.462Z,99052.25
2022-12-24T04:43:09.797Z,99045.06
2022-12-24T04:48:33.474Z,99044.25
2022-12-24T04:53:56.648Z,99049.56
2022-12-24T04:59:18.920Z,99054.91
2022-12-24T05:04:41.343Z,99051.13
2022-12-24T05:10:04.089Z,99065.00
2022-12-24T05:15:27.816Z,99067.66
2022-12-24T05:20:50.263Z,99059.91
2022-12-24T05:26:33.831Z,99073.50
2022-12-24T05:31:55.990Z,99059.91
2022-12-24T05:37:18.391Z,99072.47
2022-12-24T05:42:40.199Z,99073.50
2022-12-24T05:48:02.292Z,99070.03
2022-12-24T05:53:24.443Z,99093.44
2022-12-24T05:58:46.693Z,99088.63
2022-12-24T06:04:08.640Z,99092.06
2022-12-24T06:09:30.558Z,99102.19
2022-12-24T06:14:52.968Z,99098.75
2022-12-24T06:20:15.142Z,99095.44
2022-12-24T06:25:37.111Z,99109.88
2022-12-24T06:31:02.965Z,99114.19
2022-12-24T06:36:26.832Z,99113.31
2022-12-24T06:41:52.182Z,99122.41
2022-12-24T06:47:14.293Z,99108.28
2022-12-24T06:52:36.514Z,99123.50
2022-12-24T06:57:58.934Z,99106.13
2022-12-24T07:03:21.407Z,99111.47
2022-12-24T07:08:44.502Z,99128.00
2022-12-24T07:14:07.303Z,99128.31
2022-12-24T07:19:30.522Z,99118.97
2022-12-24T07:24:52.610Z,99124.06
2022-12-24T07:30:15.111Z,99128.09
2022-12-24T07:35:39.565Z,99135.28
2022-12-24T07:41:01.991Z,99127.31
2022-12-24T07:46:27.078Z,99117.69
2022-12-24T07:51:49.244Z,99116.97
2022-12-24T07:57:11.300Z,99128.72
2022-12-24T08:02:37.552Z,99113.75
2022-12-24T08:07:59.762Z,99113.75
2022-12-24T08:13:21.991Z,99127.88
2022-12-24T08:18:44.370Z,99110.53
2022-12-24T08:24:07.323Z,99107.88
2022-12-24T08:29:29.752Z,99122.06
2022-12-24T08:34:51.521Z,99095.13
2022-12-24T08:40:14.012Z,99118.88
2022-12-24T08:45:40.889Z,99117.25
2022-12-24T08:51:11.233Z,99105.28
2022-12-24T08:56:32.735Z,99109.56
2022-12-24T09:01:54.464Z,99102.06
2022-12-24T09:07:16.673Z,99101.03
2022-12-24T09:12:39.239Z,99090.09
2022-12-24T09:18:02.067Z,99090.91
2022-12-24T09:23:23.817Z,99088.19
2022-12-24T09:28:46.171Z,99091.13
2022-12-24T09:34:08.443Z,99073.28
2022-12-24T09:39:31.344Z,99075.69
2022-12-24T09:45:14.307Z,99057.06
2022-12-24T09:50:46.449Z,99059.97
2022-12-24T09:56:19.837Z,99061.53
2022-12-24T10:01:42.567Z,99052.47
2022-12-24T10:07:10.588Z,99046.06
2022-12-24T10:12:36.986Z,99028.72
2022-12-24T10:18:07.818Z,99030.88
2022-12-24T10:23:39.622Z,99013.47
2022-12-24T10:29:09.736Z,99031.84
2022-12-24T10:35:15.515Z,99034.44
2022-12-24T10:40:51.362Z,99021.69
2022-12-24T10:46:43.491Z,99036.00
2022-12-24T10:52:14.624Z,99005.03
2022-12-24T10:57:37.413Z,99010.63
2022-12-24T11:03:23.917Z,99026.91
2022-12-24T11:08:46.653Z,99018.09
2022-12-24T11:14:17.440Z,98988.53
2022-12-24T11:19:40.628Z,98986.88
2022-12-24T11:25:08.633Z,98995.09
2022-12-24T11:30:34.323Z,98995.41
2022-12-24T11:36:03.322Z,99012.97
2022-12-24T11:41:26.918Z,99032.13
2022-12-24T11:46:52.850Z,99023.06
2022-12-24T11:52:23.194Z,99031.03
2022-12-24T11:58:01.346Z,99037.94
2022-12-24T12:03:38.961Z,99038.72
2022-12-24T12:09:06.381Z,99039.53
2022-12-24T12:14:42.815Z,99025.72
2022-12-24T12:20:25.824Z,99044.53
2022-12-24T12:25:56.587Z,99033.63
2022-12-24T12:31:34.588Z,99043.72
2022-12-24T12:37:09.662Z,99047.44
2022-12-24T12:42:40.482Z,99047.44
2022-12-24T12:48:38.811Z,99043.44
2022-12-24T12:54:38.724Z,99028.41
2022-12-24T13:00:18.144Z,99029.47
2022-12-24T13:11:54.488Z,99038.03
2022-12-24T13:17:34.892Z,99066.53
2022-12-24T13:23:03.047Z,99071.63
2022-12-24T13:28:30.892Z,99081.97
2022-12-24T13:34:00.674Z,99059.06
2022-12-24T13:45:45.833Z,99063.84
2022-12-24T13:51:26.090Z,99055.63
2022-12-24T13:56:48.503Z,99068.16
2022-12-24T14:02:22.892Z,99080.41
2022-12-24T14:07:51.415Z,99083.38
2022-12-24T14:13:41.631Z,99089.50
2022-12-24T14:19:03.888Z,99093.22
2022-12-24T14:24:32.241Z,99092.69
2022-12-24T14:30:07.402Z,99083.06
2022-12-24T14:35:36.344Z,99077.47
2022-12-24T14:41:09.536Z,99083.38
2022-12-24T14:46:49.637Z,99106.88
2022-12-24T14:52:54.589Z,99117.72
2022-12-24T14:58:31.905Z,99115.06
2022-12-24T15:04:03.771Z,99110.25
2022-12-24T15:09:29.967Z,99107.88
2022-12-24T15:14:51.974Z,99104.91
2022-12-24T15:20:24.479Z,99120.34
2022-12-24T15:25:46.433Z,99111.50
2022-12-24T15:31:23.689Z,99110.41
2022-12-24T15:36:46.116Z,99137.06
2022-12-24T15:42:19.308Z,99119.09
2022-12-24T15:47:54.946Z,99134.09
2022-12-24T15:53:41.257Z,99114.78
2022-12-24T15:59:32.806Z,99142.56
2022-12-24T16:04:55.897Z,99130.50
2022-12-24T16:10:26.169Z,99122.50
2022-12-24T16:15:56.064Z,99138.44
2022-12-24T16:21:24.185Z,99162.72
2022-12-24T16:26:46.736Z,99145.03
2022-12-24T16:32:29.096Z,99141.31
2022-12-24T16:37:51.206Z,99159.69
2022-12-24T16:43:31.698Z,99169.88
2022-12-24T16:48:53.755Z,99166.06
2022-12-24T16:54:16.163Z,99173.25
2022-12-24T16:59:38.400Z,99180.69
2022-12-24T17:05:00.206Z,99193.50
2022-12-24T17:10:22.132Z,99186.59
2022-12-24T17:15:43.968Z,99190.59
2022-12-24T17:21:07.364Z,99196.97
2022-12-24T17:26:29.665Z,99210.53
2022-12-24T17:31:52.048Z,99205.25
2022-12-24T17:42:56.712Z,99212.91
2022-12-24T17:48:19.006Z,99224.31
2022-12-24T17:53:43.050Z,99230.09
2022-12-24T17:59:05.410Z,99233.38
2022-12-24T18:04:27.429Z,99244.56
2022-12-24T18:09:49.734Z,99252.25
2022-12-24T18:15:12.817Z,99254.03
2022-12-24T18:20:41.101Z,99266.31
2022-12-24T18:26:06.672Z,99261.69
2022-12-24T18:31:30.330Z,99263.81
2022-12-24T18:36:55.397Z,99276.81
2022-12-24T18:42:18.235Z,99278.88
2022-12-24T18:47:40.530Z,99301.88
2022-12-24T18:53:03.083Z,99300.13
2022-12-24T18:58:25.238Z,99305.41
2022-12-24T19:03:48.474Z,99332.13
2022-12-24T19:09:16.635Z,99355.81
2022-12-24T19:14:46.480Z,99355.44
2022-12-24T19:20:12.293Z,99349.50
2022-12-24T19:25:36.222Z,99350.78
2022-12-24T19:31:05.056Z,99375.59
2022-12-24T19:36:30.590Z,99397.47
2022-12-24T19:41:55.341Z,99370.56
2022-12-24T19:47:17.691Z,99414.69
2022-12-24T19:52:41.794Z,99412.53
2022-12-24T19:58:04.301Z,99392.59
2022-12-24T20:03:26.827Z,99420.66
2022-12-24T20:08:49.666Z,99407.72
2022-12-24T20:14:13.038Z,99412.19
2022-12-24T20:19:37.904Z,99426.94
2022-12-24T20:25:00.496Z,99439.94
2022-12-24T20:30:23.066Z,99485.03
2022-12-24T20:35:47.599Z,99494.63
2022-12-24T20:41:11.646Z,99502.03
2022-12-24T20:46:33.757Z,99507.59
2022-12-24T20:51:56.122Z,99501.97
2022-12-24T20:57:25.154Z,99510.06
2022-12-24T21:02:49.174Z,99514.00
2022-12-24T21:08:12.947Z,99531.03
2022-12-24T21:13:35.212Z,99535.94
2022-12-24T21:18:57.438Z,99541.97
2022-12-24T21:24:19.382Z,99546.63
2022-12-24T21:29:42.221Z,99559.63
2022-12-24T21:41:15.294Z,99575.34
2022-12-24T21:46:37.468Z,99581.47
2022-12-24T21:52:02.588Z,99588.41
2022-12-24T21:57:43.631Z,99593.47
2022-12-24T22:03:06.189Z,99581.59
2022-12-24T22:08:47.800Z,99595.19
2022-12-24T22:14:10.101Z,99598.13
2022-12-24T22:19:32.975Z,99616.47
2022-12-24T22:24:56.222Z,99613.81
2022-12-24T22:30:33.516Z,99626.28
2022-12-24T22:35:55.739Z,99600.38
2022-12-24T22:41:18.343Z,99639.53
2022-12-24T22:46:40.090Z,99642.56
2022-12-24T22:52:02.563Z,99646.72
2022-12-24T22:57:24.422Z,99659.38
2022-12-24T23:02:46.290Z,99661.91
2022-12-24T23:08:09.024Z,99689.22
2022-12-24T23:13:49.673Z,99658.34
2022-12-24T23:19:12.009Z,99693.16
2022-12-24T23:24:35.665Z,99696.38
2022-12-24T23:29:57.422Z,99724.16
2022-12-24T23:35:27.814Z,99729.13
2022-12-24T23:41:07.942Z,99737.19
2022-12-24T23:46:33.020Z,99718.50
2022-12-24T23:51:55.786Z,99726.78
2022-12-24T23:57:18.166Z,99730.66
